METAR Analyzer

一覧表示

Hello, Guest. (Login)

RJCC/CTS  -  札幌/新千歳

観測日時
2020-11-24 11:30 (UTC) (37分前)
気温
-1
露点
-3
湿数
2
相対湿度
86.3%
QNH
1024.7hPa
推定現地気圧
1021.7hPa
推定海面気圧
1024.9hPa
体感温度
-11.9
(無風時)
3.3
HI
-2.8
気温前日比
-3
体感温度前日比
-1.6
HI前日比
-2.7
水平視程
>10000m
鉛直視程
データなし
雲底高度
5000ft AGL
V/I
VMC (VFR)
RVR
No RVR data
卓越風
5kt from 110°
ガスト
No gust
降水
報告なし
その他の天気
報告なし
少しの(1/8) 積雲 @ 3000ft AGL / 隙間のある(6/8) 積雲 @ 5000ft AGL

RJCC 241130Z 11005KT 9999 FEW030 BKN050 M01/M03 Q1024 RMK 1CU030 6CU050 A3026

RJTT/HND  -  東京/羽田

観測日時
2020-11-24 11:30 (UTC) (37分前)
気温
13
露点
7
湿数
6
相対湿度
66.9%
QNH
1025.7hPa
推定現地気圧
1025.0hPa
推定海面気圧
1025.7hPa
体感温度
2.9
(無風時)
15
HI
12.1
気温前日比
-2
体感温度前日比
-3.2
HI前日比
-2.3
水平視程
>10000m
鉛直視程
データなし
雲底高度
3000ft AGL
V/I
VMC (VFR)
RVR
No RVR data
卓越風
11kt from 10°
ガスト
No gust
降水
弱い雨
その他の天気
報告なし
少しの(1/8) 積雲 @ 2500ft AGL / 隙間のある(7/8) 層積雲 @ 3000ft AGL

RJTT 241130Z 01011KT 9999 -RA FEW025 BKN030 13/07 Q1025 NOSIG RMK 1CU025 7SC030 A3029

RJAA/NRT  -  東京/成田

観測日時
2020-11-24 11:30 (UTC) (37分前)
気温
12
露点
7
湿数
5
相対湿度
71.4%
QNH
1025.4hPa
推定現地気圧
1024.1hPa
推定海面気圧
1025.4hPa
体感温度
3.3
(無風時)
14.2
HI
11.1
気温前日比
-1
体感温度前日比
-2.6
HI前日比
-1
水平視程
>10000m
鉛直視程
データなし
雲底高度
3000ft AGL
V/I
VMC (VFR)
RVR
No RVR data
卓越風
7kt from 10°
ガスト
No gust
降水
報告なし
その他の天気
報告なし
少しの(1/8) 積雲 @ 2000ft AGL / 隙間のある(7/8) 層積雲 @ 3000ft AGL

RJAA 241130Z 01007KT 9999 FEW020 BKN030 12/07 Q1025 NOSIG RMK 1CU020 7SC030 A3028

株式会社マネーパートナーズ 【Manepa Card】

RJGG/NGO  -  名古屋/中部

観測日時
2020-11-24 11:30 (UTC) (37分前)
気温
15
露点
6
湿数
9
相対湿度
54.8%
QNH
1023.7hPa
推定現地気圧
1023.2hPa
推定海面気圧
1023.7hPa
体感温度
7.1
(無風時)
16.3
HI
14
気温前日比
+1
体感温度前日比
+5
HI前日比
+1
水平視程
>10000m
鉛直視程
データなし
雲底高度
10000ft AGL
V/I
VMC (VFR)
RVR
No RVR data
卓越風
7kt from 320°
ガスト
No gust
降水
報告なし
その他の天気
報告なし
少しの(1/8) 積雲 @ 3000ft AGL / 散在する(3/8) 層積雲 @ 4000ft AGL / 隙間のある(6/8) 高積雲 @ 10000ft AGL

RJGG 241130Z 32007KT 9999 FEW030 SCT040 BKN100 15/06 Q1023 NOSIG RMK 1CU030 3SC040 6AC100 A3023

RJOO/ITM  -  大阪/伊丹

観測日時
2020-11-24 11:00 (UTC) (67分前)
気温
11
露点
6
湿数
5
相対湿度
71.2%
QNH
1024.4hPa
推定現地気圧
1022.9hPa
推定海面気圧
1024.4hPa
体感温度
3.5
(無風時)
13.4
HI
10
気温前日比
±0
体感温度前日比
+1.6
HI前日比
-0.1
水平視程
>10000m
鉛直視程
データなし
雲底高度
No dense clouds
V/I
VMC (VFR)
RVR
No RVR data
卓越風
5kt from 310°
ガスト
No gust
降水
報告なし
その他の天気
報告なし
少しの(1/8) 積雲 @ 3000ft AGL

RJOO 241100Z 31005KT 9999 FEW030 11/06 Q1024 RMK 1CU030 A3025

RJBB/KIX  -  大阪/関西

観測日時
2020-11-24 11:30 (UTC) (37分前)
気温
12
露点
7
湿数
5
相対湿度
71.4%
QNH
1024hPa
推定現地気圧
1023.4hPa
推定海面気圧
1024.0hPa
体感温度
5.5
(無風時)
14.2
HI
11.1
気温前日比
-1
体感温度前日比
+4.2
HI前日比
-1.1
水平視程
>10000m
鉛直視程
データなし
雲底高度
No dense clouds
V/I
VMC (VFR)
RVR
No RVR data
卓越風
4kt from 80° (30° ~ 120°)
ガスト
No gust
降水
報告なし
その他の天気
報告なし
少しの雲 @ 3000ft AGL

RJBB 241130Z 08004KT 030V120 9999 FEW030 12/07 Q1024 NOSIG

RJFF/FUK  -  福岡

観測日時
2020-11-24 11:30 (UTC) (37分前)
気温
11
露点
8
湿数
3
相対湿度
81.7%
QNH
1024.7hPa
推定現地気圧
1023.6hPa
推定海面気圧
1024.7hPa
体感温度
6.8
(無風時)
13.5
HI
10.3
気温前日比
±0
体感温度前日比
+2.7
HI前日比
±0
水平視程
>10000m
鉛直視程
データなし
雲底高度
No dense clouds
V/I
VMC (VFR)
RVR
No RVR data
卓越風
2kt from VRB
ガスト
No gust
降水
報告なし
その他の天気
報告なし
少しの(1/8) 積雲 @ 3000ft AGL

RJFF 241130Z VRB02KT 9999 FEW030 11/08 Q1024 NOSIG RMK 1CU030 A3026

ROAH/OKA  -  那覇

観測日時
2020-11-24 11:30 (UTC) (37分前)
気温
22
露点
16
湿数
6
相対湿度
68.8%
QNH
1021.3hPa
推定現地気圧
1020.9hPa
推定海面気圧
1021.3hPa
体感温度
14.4
(無風時)
22
HI
22.1
気温前日比
±0
体感温度前日比
+0.9
HI前日比
±0
水平視程
>10000m
鉛直視程
データなし
雲底高度
4000ft AGL
V/I
VMC (VFR)
RVR
No RVR data
卓越風
11kt from 40° (360° ~ 70°)
ガスト
No gust
降水
報告なし
その他の天気
報告なし
少しの(1/8) 積雲 @ 3000ft AGL / 隙間のある(6/8) 層積雲 @ 4000ft AGL

ROAH 241130Z 04011KT 360V070 9999 FEW030 BKN040 22/16 Q1021 RMK 1CU030 6SC040 A3016

11.6msec